Time;durP1;ratioP1;P1;durP2;ratioP2;P2;SDS_P1;SDS_P2;PMS_P1;PMS_P2;Temp;Humidity;BMP_temperature;BMP_pressure;BME280_temperature;BME280_humidity;BME280_pressure;Samples;Min_cycle;Max_cycle;Signal;HPM_P1;HPM_P2
2022/11/23 00:02:02;;;;;;;4.97;1.63;;;;;;;9.32;71.26;98418.66;5116507;28;20074;-60
2022/11/23 00:04:30;;;;;;;4.38;1.60;;;;;;;9.29;72.52;98413.81;5116050;28;20368;-60
2022/11/23 00:06:59;;;;;;;6.00;1.88;;;;;;;9.28;70.90;98417.75;5116524;28;20051;-60
2022/11/23 00:09:26;;;;;;;9.10;2.42;;;;;;;9.31;71.26;98450.38;5115775;28;20054;-60
2022/11/23 00:11:58;;;;;;;5.60;2.33;;;;;;;9.26;71.39;98422.03;5111679;28;20048;-61
2022/11/23 00:14:26;;;;;;;4.55;1.67;;;;;;;9.34;71.25;98421.91;5103249;28;20812;-60
2022/11/23 00:16:53;;;;;;;4.95;1.85;;;;;;;9.34;71.81;98429.41;5104260;28;20055;-60
2022/11/23 00:19:20;;;;;;;7.63;1.80;;;;;;;9.46;71.66;98420.19;5114456;28;20059;-61
2022/11/23 00:21:47;;;;;;;4.32;1.58;;;;;;;9.60;70.07;98430.88;5114869;27;20048;-60
2022/11/23 00:24:15;;;;;;;6.88;1.63;;;;;;;9.48;70.48;98437.31;5114654;28;20408;-59
2022/11/23 00:26:42;;;;;;;5.82;1.63;;;;;;;9.59;71.32;98427.28;5115795;28;20052;-60
2022/11/23 00:29:14;;;;;;;5.68;1.92;;;;;;;9.35;71.25;98434.59;5095253;28;20075;-60
2022/11/23 00:31:41;;;;;;;6.45;1.95;;;;;;;9.58;71.12;98431.22;5113557;28;20067;-61
2022/11/23 00:34:09;;;;;;;7.55;2.25;;;;;;;9.59;69.58;98435.59;5115765;28;20055;-60
2022/11/23 00:36:36;;;;;;;5.47;1.65;;;;;;;9.60;70.38;98434.47;5115654;28;20048;-61
2022/11/23 00:39:03;;;;;;;6.30;1.50;;;;;;;9.62;70.72;98439.66;5099930;28;20056;-61
2022/11/23 00:41:31;;;;;;;6.53;2.00;;;;;;;9.70;68.94;98431.16;5095068;28;20044;-61
2022/11/23 00:43:58;;;;;;;4.68;1.45;;;;;;;9.54;69.48;98441.44;5094941;28;20055;-61
2022/11/23 00:46:28;;;;;;;5.95;1.58;;;;;;;9.58;69.71;98444.34;5104371;28;20055;-61
2022/11/23 00:48:57;;;;;;;4.53;1.55;;;;;;;9.69;69.54;98432.31;5115320;28;20063;-61
2022/11/23 00:51:27;;;;;;;5.75;1.42;;;;;;;9.84;69.57;98450.16;5115166;28;20059;-61
2022/11/23 00:53:55;;;;;;;6.38;1.83;;;;;;;9.89;68.83;98451.84;5115187;28;20480;-61
2022/11/23 00:56:22;;;;;;;6.63;2.85;;;;;;;9.99;68.80;98461.63;5112093;28;20052;-61
2022/11/23 00:58:50;;;;;;;4.43;1.55;;;;;;;10.01;69.13;98448.16;5114922;28;20149;-61
2022/11/23 01:01:18;;;;;;;4.93;1.70;;;;;;;9.97;68.32;98431.38;5114890;28;20040;-60
2022/11/23 01:03:50;;;;;;;6.28;1.60;;;;;;;9.87;68.58;98449.44;5114835;28;20526;-60
2022/11/23 01:06:19;;;;;;;5.25;1.63;;;;;;;9.79;69.72;98446.84;5114983;28;20050;-61
2022/11/23 01:08:52;;;;;;;6.60;1.60;;;;;;;9.80;68.96;98446.47;5114792;28;20416;-61
2022/11/23 01:11:20;;;;;;;8.82;2.28;;;;;;;9.93;68.49;98450.78;5089921;28;20055;-61
2022/11/23 01:13:47;;;;;;;4.20;1.50;;;;;;;9.86;69.74;98452.56;5074149;28;20048;-60
2022/11/23 01:16:17;;;;;;;4.70;1.80;;;;;;;9.74;69.34;98451.50;5073809;28;20049;-61
2022/11/23 01:18:44;;;;;;;6.80;1.60;;;;;;;9.77;69.53;98463.88;5074123;28;20052;-61
2022/11/23 01:21:13;;;;;;;6.80;1.92;;;;;;;9.72;70.37;98459.41;5073720;28;20049;-60
2022/11/23 01:23:40;;;;;;;6.57;1.77;;;;;;;9.91;69.34;98449.50;5074078;28;20056;-61
2022/11/23 01:26:14;;;;;;;4.50;1.60;;;;;;;9.81;69.65;98455.63;5087413;28;20059;-60
2022/11/23 01:28:41;;;;;;;6.80;1.83;;;;;;;9.74;70.00;98461.81;5094289;28;20055;-60
2022/11/23 01:31:11;;;;;;;4.57;1.77;;;;;;;9.75;69.41;98467.00;5094278;28;20078;-60
2022/11/23 01:33:39;;;;;;;4.03;1.40;;;;;;;9.79;69.70;98463.53;5094325;28;20059;-61
2022/11/23 01:36:11;;;;;;;4.85;1.42;;;;;;;9.86;68.70;98467.28;5094030;28;20068;-61
2022/11/23 01:38:39;;;;;;;4.80;1.50;;;;;;;9.87;70.10;98460.56;5092416;28;20409;-60
2022/11/23 01:41:07;;;;;;;3.65;1.60;;;;;;;9.89;69.42;98468.53;5083199;28;20048;-60
2022/11/23 01:43:37;;;;;;;3.78;1.30;;;;;;;10.09;68.96;98466.63;5073246;28;20053;-60
2022/11/23 01:46:05;;;;;;;3.50;1.15;;;;;;;9.81;69.50;98467.56;5073714;28;20421;-61
2022/11/23 01:48:35;;;;;;;5.35;1.70;;;;;;;9.68;70.28;98480.75;5073525;28;20052;-61
2022/11/23 01:51:06;;;;;;;4.63;1.50;;;;;;;9.83;70.37;98470.00;5073392;28;20401;-61
2022/11/23 01:53:34;;;;;;;4.07;1.23;;;;;;;9.94;69.03;98469.06;5073257;28;20476;-61
2022/11/23 01:56:06;;;;;;;4.18;1.23;;;;;;;9.84;69.17;98466.03;5092031;28;20496;-61
2022/11/23 01:58:38;;;;;;;5.85;1.40;;;;;;;9.82;69.05;98468.34;5093413;28;20408;-62
2022/11/23 02:01:09;;;;;;;4.32;1.60;;;;;;;9.91;68.71;98472.59;5093364;28;20519;-61
2022/11/23 02:03:37;;;;;;;4.07;1.60;;;;;;;9.81;69.13;98484.25;5111221;28;20057;-61
2022/11/23 02:06:11;;;;;;;5.38;1.95;;;;;;;10.00;67.89;98463.25;5113652;28;20047;-61
2022/11/23 02:08:39;;;;;;;3.83;1.70;;;;;;;9.87;68.00;98480.03;5101732;28;20044;-61
2022/11/23 02:11:07;;;;;;;5.88;1.88;;;;;;;9.91;68.27;98499.56;5089766;28;20059;-61
2022/11/23 02:13:35;;;;;;;4.70;1.88;;;;;;;10.04;68.23;98481.63;5093419;28;20055;-61
2022/11/23 02:16:02;;;;;;;6.80;1.67;;;;;;;10.12;67.82;98489.00;5093286;28;20059;-61
2022/11/23 02:18:31;;;;;;;4.30;1.75;;;;;;;10.13;67.25;98479.47;5093003;28;20047;-61
2022/11/23 02:21:00;;;;;;;4.40;1.30;;;;;;;9.95;67.95;98478.22;5093497;28;20059;-61
2022/11/23 02:23:34;;;;;;;5.00;1.53;;;;;;;10.05;68.47;98486.00;5098621;28;20508;-61
2022/11/23 02:26:07;;;;;;;6.28;1.40;;;;;;;10.16;67.08;98483.50;5113433;28;20055;-61
2022/11/23 02:28:39;;;;;;;5.78;1.90;;;;;;;10.14;67.06;98481.09;5110142;28;20062;-60
2022/11/23 02:31:07;;;;;;;6.47;1.50;;;;;;;10.28;67.05;98485.38;5093229;28;20044;-60
2022/11/23 02:33:34;;;;;;;4.65;1.20;;;;;;;10.33;66.57;98483.16;5092949;28;20056;-60
2022/11/23 02:36:02;;;;;;;6.13;2.20;;;;;;;10.48;65.77;98494.63;5110534;28;20054;-60
2022/11/23 02:38:33;;;;;;;4.05;1.40;;;;;;;10.26;66.97;98494.06;5111615;28;20055;-60
2022/11/23 02:41:00;;;;;;;3.53;1.35;;;;;;;10.15;66.42;98488.25;5113525;28;20062;-60
2022/11/23 02:43:29;;;;;;;5.97;1.80;;;;;;;10.09;67.46;98495.25;5113164;28;20048;-60
2022/11/23 02:45:59;;;;;;;7.80;2.15;;;;;;;10.41;67.21;98489.69;5113296;28;20158;-60
2022/11/23 02:48:26;;;;;;;4.95;1.60;;;;;;;10.19;67.04;98495.91;5113063;28;20059;-60
2022/11/23 02:50:53;;;;;;;4.28;1.50;;;;;;;10.21;66.49;98497.16;5113072;28;20492;-59
2022/11/23 02:53:21;;;;;;;6.20;1.42;;;;;;;10.06;66.50;98504.34;5110867;28;20381;-60
2022/11/23 02:55:48;;;;;;;4.85;1.70;;;;;;;10.23;66.85;98494.00;5113239;28;20055;-60
2022/11/23 02:58:15;;;;;;;5.63;1.55;;;;;;;10.34;66.79;98495.88;5113233;28;20058;-59
2022/11/23 03:00:44;;;;;;;5.22;1.27;;;;;;;10.37;66.38;98499.91;5112467;28;20059;-59
2022/11/23 03:03:11;;;;;;;6.17;1.70;;;;;;;10.33;66.91;98510.16;5106618;28;20052;-61
2022/11/23 03:05:39;;;;;;;4.88;1.80;;;;;;;10.19;66.96;98509.81;5094174;28;20059;-61
2022/11/23 03:08:06;;;;;;;5.35;1.70;;;;;;;10.28;66.90;98508.44;5092398;28;20048;-60
2022/11/23 03:10:34;;;;;;;4.57;1.45;;;;;;;10.30;67.33;98510.91;5091862;28;20056;-61
2022/11/23 03:13:01;;;;;;;3.25;1.30;;;;;;;10.39;67.41;98519.03;5092434;28;20067;-60
2022/11/23 03:15:28;;;;;;;4.55;1.30;;;;;;;10.43;67.51;98514.38;5092446;28;20378;-60
2022/11/23 03:17:57;;;;;;;4.90;1.70;;;;;;;10.36;68.08;98510.25;5092133;28;20503;-60
2022/11/23 03:20:24;;;;;;;7.05;1.60;;;;;;;10.47;68.18;98504.94;5092275;28;20059;-60
2022/11/23 03:22:51;;;;;;;4.90;1.40;;;;;;;10.15;68.65;98513.28;5092107;28;20055;-60
2022/11/23 03:25:18;;;;;;;4.45;1.20;;;;;;;10.43;67.92;98526.31;5092711;28;20582;-60
2022/11/23 03:27:46;;;;;;;4.97;1.45;;;;;;;10.22;69.59;98520.22;5091148;28;20052;-60
2022/11/23 03:30:14;;;;;;;3.80;1.30;;;;;;;10.30;69.40;98517.25;5091999;28;20063;-60
2022/11/23 03:32:41;;;;;;;5.00;1.58;;;;;;;10.08;70.39;98524.25;5092134;28;20070;-58
2022/11/23 03:35:10;;;;;;;3.83;1.27;;;;;;;10.14;70.01;98516.44;5102075;28;20074;-59
2022/11/23 03:37:37;;;;;;;3.53;1.50;;;;;;;10.25;69.57;98513.94;5110712;27;20055;-59
2022/11/23 03:40:05;;;;;;;6.28;2.00;;;;;;;9.87;70.00;98521.75;5112864;28;20395;-59
2022/11/23 03:42:32;;;;;;;6.30;2.13;;;;;;;9.93;70.26;98517.53;5105762;28;20048;-59
2022/11/23 03:44:59;;;;;;;4.32;1.10;;;;;;;9.85;71.05;98515.72;5092357;28;20082;-58
2022/11/23 03:47:27;;;;;;;2.45;1.13;;;;;;;9.70;72.00;98519.28;5091587;28;20055;-59
2022/11/23 03:49:54;;;;;;;3.67;1.50;;;;;;;9.78;72.07;98523.88;5092095;28;20059;-59
2022/11/23 03:52:23;;;;;;;6.50;1.70;;;;;;;9.90;71.17;98514.66;5093510;28;20401;-58
2022/11/23 03:54:50;;;;;;;5.05;1.55;;;;;;;9.78;72.18;98521.09;5112400;28;20051;-59
2022/11/23 03:57:17;;;;;;;3.38;1.27;;;;;;;9.88;71.65;98515.00;5110618;28;20063;-59
2022/11/23 03:59:44;;;;;;;6.43;1.40;;;;;;;9.96;71.89;98521.56;5112425;28;20062;-58
2022/11/23 04:02:12;;;;;;;3.97;1.23;;;;;;;9.85;71.18;98523.25;5112405;28;20047;-58
2022/11/23 04:04:39;;;;;;;3.03;1.48;;;;;;;9.93;71.47;98525.88;5110556;28;20059;-59
2022/11/23 04:07:06;;;;;;;6.03;1.83;;;;;;;9.68;72.58;98528.00;5112342;28;20534;-59
2022/11/23 04:09:35;;;;;;;5.13;1.23;;;;;;;9.92;71.66;98517.88;5111633;28;20063;-59
2022/11/23 04:12:02;;;;;;;3.88;2.03;;;;;;;9.92;72.12;98529.81;5112042;28;20443;-59
2022/11/23 04:14:29;;;;;;;3.58;1.48;;;;;;;10.06;71.95;98517.44;5111781;28;20400;-59
2022/11/23 04:16:57;;;;;;;6.70;1.50;;;;;;;9.83;71.64;98526.41;5112124;28;20058;-59
2022/11/23 04:19:24;;;;;;;2.72;1.30;;;;;;;9.71;72.00;98535.59;5109744;28;20054;-59
2022/11/23 04:21:51;;;;;;;3.08;1.13;;;;;;;9.85;72.87;98531.56;5091875;28;20062;-59
2022/11/23 04:24:18;;;;;;;2.85;1.15;;;;;;;9.72;72.54;98528.91;5091481;28;20052;-59
2022/11/23 04:26:47;;;;;;;3.50;1.38;;;;;;;9.73;72.91;98519.38;5091711;28;20531;-58
2022/11/23 04:29:14;;;;;;;4.50;1.30;;;;;;;9.89;72.85;98524.13;5091518;28;20052;-58
2022/11/23 04:31:41;;;;;;;5.18;1.52;;;;;;;9.78;73.17;98520.28;5091172;28;20088;-58
2022/11/23 04:34:09;;;;;;;4.20;1.63;;;;;;;9.66;73.39;98526.72;5092345;28;20075;-58
2022/11/23 04:36:36;;;;;;;2.88;1.35;;;;;;;9.79;73.48;98524.69;5111809;28;20051;-59
2022/11/23 04:39:05;;;;;;;6.85;1.70;;;;;;;9.79;73.42;98538.59;5113808;28;20388;-58
2022/11/23 04:41:32;;;;;;;5.32;1.50;;;;;;;9.64;73.00;98529.88;5107508;28;20071;-58
2022/11/23 04:44:00;;;;;;;3.13;1.20;;;;;;;9.51;73.76;98528.31;5112695;28;20063;-58
2022/11/23 04:46:28;;;;;;;6.72;1.67;;;;;;;9.58;73.52;98527.72;5110502;28;20047;-59
2022/11/23 04:48:55;;;;;;;3.60;1.60;;;;;;;9.53;74.88;98531.53;5110338;28;20473;-58
2022/11/23 04:51:22;;;;;;;6.22;1.98;;;;;;;9.61;74.41;98530.56;5109413;28;20150;-59
2022/11/23 04:53:50;;;;;;;4.88;1.85;;;;;;;9.70;73.42;98545.13;5097069;28;20059;-58
2022/11/23 04:56:17;;;;;;;5.00;1.23;;;;;;;9.73;73.34;98538.03;5095431;28;20048;-58
2022/11/23 04:58:44;;;;;;;3.70;1.30;;;;;;;9.52;74.70;98533.50;5094841;28;20058;-59
2022/11/23 05:01:13;;;;;;;5.20;1.65;;;;;;;9.66;74.56;98535.88;5095203;28;20409;-59
2022/11/23 05:03:40;;;;;;;5.28;1.80;;;;;;;9.57;73.61;98532.44;5094058;28;20048;-59
2022/11/23 05:06:09;;;;;;;3.17;1.60;;;;;;;9.66;73.76;98532.28;5095292;28;20403;-58
2022/11/23 05:08:37;;;;;;;4.47;1.40;;;;;;;9.61;74.74;98527.78;5094591;28;20063;-59
2022/11/23 05:11:04;;;;;;;4.22;1.80;;;;;;;9.60;73.77;98528.16;5094485;28;20474;-58
2022/11/23 05:13:31;;;;;;;4.70;1.80;;;;;;;9.64;73.96;98529.03;5094898;28;20067;-59
2022/11/23 05:15:59;;;;;;;3.33;1.33;;;;;;;9.62;73.64;98525.84;5086622;28;20431;-59
2022/11/23 05:18:27;;;;;;;3.80;1.30;;;;;;;9.54;74.29;98536.75;5101028;27;20056;-58
2022/11/23 05:20:54;;;;;;;5.35;1.40;;;;;;;9.55;73.55;98537.53;5101650;27;20413;-58
2022/11/23 05:23:22;;;;;;;6.25;1.80;;;;;;;9.69;73.15;98531.56;5094616;28;20044;-59
2022/11/23 05:25:49;;;;;;;7.63;1.80;;;;;;;9.59;72.89;98526.53;5094877;28;20056;-59
2022/11/23 05:28:19;;;;;;;3.33;1.42;;;;;;;9.60;73.46;98530.94;5094628;28;20044;-58
2022/11/23 05:30:47;;;;;;;3.85;1.50;;;;;;;9.58;72.86;98527.72;5094367;28;20056;-58
2022/11/23 05:33:14;;;;;;;4.25;1.40;;;;;;;9.60;72.52;98528.97;5094167;28;20051;-58
2022/11/23 05:35:43;;;;;;;7.63;1.98;;;;;;;9.59;72.34;98538.44;5108795;28;20056;-58
2022/11/23 05:38:10;;;;;;;3.83;1.73;;;;;;;9.62;73.03;98534.97;5114683;28;20058;-59
2022/11/23 05:40:38;;;;;;;5.05;1.60;;;;;;;9.42;73.60;98536.00;5114609;28;20055;-59
2022/11/23 05:43:05;;;;;;;4.43;1.50;;;;;;;9.46;73.17;98532.16;5107363;28;20051;-59
2022/11/23 05:45:32;;;;;;;8.70;1.85;;;;;;;9.36;72.46;98549.31;5100539;28;20058;-58
2022/11/23 05:48:00;;;;;;;5.25;1.60;;;;;;;9.45;71.75;98538.06;5100388;28;20052;-59
2022/11/23 05:50:28;;;;;;;4.78;1.83;;;;;;;9.43;72.10;98535.66;5085496;28;20087;-59
2022/11/23 05:52:57;;;;;;;7.28;2.22;;;;;;;9.52;72.55;98544.63;5114364;28;20059;-59
2022/11/23 05:55:25;;;;;;;4.22;1.50;;;;;;;9.58;71.19;98545.19;5085622;28;20531;-59
2022/11/23 05:57:52;;;;;;;4.30;1.80;;;;;;;9.57;72.25;98549.13;5101665;28;20473;-59
2022/11/23 06:00:20;;;;;;;6.28;1.38;;;;;;;9.67;70.62;98545.81;5086053;28;20056;-59
2022/11/23 06:02:47;;;;;;;5.65;1.50;;;;;;;9.62;70.93;98548.88;5098585;28;20052;-60
2022/11/23 06:05:15;;;;;;;6.00;1.67;;;;;;;9.49;70.55;98556.47;5106010;28;20396;-59
2022/11/23 06:07:42;;;;;;;5.38;1.40;;;;;;;9.65;70.32;98548.16;5106902;28;20435;-60
2022/11/23 06:10:12;;;;;;;4.90;1.38;;;;;;;9.74;70.51;98551.59;5107237;27;20508;-59
2022/11/23 06:12:39;;;;;;;;;;;;;;;9.67;69.81;98540.25;5099476;28;20047;-59
2022/11/23 06:15:07;;;;;;;4.88;1.60;;;;;;;9.66;71.18;98546.16;5094545;28;19927;-59
2022/11/23 06:17:35;;;;;;;4.60;1.40;;;;;;;9.62;71.22;98540.53;5092176;28;20181;-59
2022/11/23 06:20:03;;;;;;;5.90;1.55;;;;;;;9.59;70.99;98549.56;5086079;28;20044;-59
2022/11/23 06:22:31;;;;;;;5.13;1.60;;;;;;;9.66;71.08;98544.22;5095706;27;20064;-60
2022/11/23 06:24:58;;;;;;;5.00;1.23;;;;;;;9.52;71.26;98558.53;5102071;28;20059;-59
2022/11/23 06:27:27;;;;;;;4.80;1.30;;;;;;;9.70;70.55;98549.84;5100680;28;20059;-60
2022/11/23 06:29:54;;;;;;;4.13;1.37;;;;;;;9.66;69.96;98555.34;5083409;28;20052;-59
2022/11/23 06:32:21;;;;;;;3.70;1.48;;;;;;;9.64;70.50;98549.31;5093287;28;20063;-60
2022/11/23 06:34:49;;;;;;;4.20;1.38;;;;;;;9.57;70.71;98540.78;5096295;28;20721;-59
2022/11/23 06:37:16;;;;;;;4.13;2.53;;;;;;;9.35;70.03;98553.28;5092825;28;20074;-59
2022/11/23 06:39:43;;;;;;;4.32;1.42;;;;;;;9.40;71.01;98546.66;5082865;28;20053;-60
2022/11/23 06:42:11;;;;;;;3.13;1.30;;;;;;;9.49;70.65;98556.47;5092243;27;20055;-59
2022/11/23 06:44:40;;;;;;;4.15;1.30;;;;;;;9.55;71.84;98545.88;5098063;28;20056;-60
2022/11/23 06:47:07;;;;;;;5.43;1.30;;;;;;;9.52;70.97;98561.31;5084777;28;20485;-59
2022/11/23 06:49:34;;;;;;;3.97;1.30;;;;;;;9.44;71.95;98551.16;5093345;28;20055;-59
2022/11/23 06:52:01;;;;;;;3.08;1.33;;;;;;;9.50;72.73;98560.03;5105250;28;20051;-59
2022/11/23 06:54:28;;;;;;;5.70;1.60;;;;;;;9.38;71.95;98576.75;5112919;28;20047;-59
2022/11/23 06:56:56;;;;;;;4.95;1.17;;;;;;;9.57;72.33;98568.56;5108295;27;20055;-60
2022/11/23 06:59:23;;;;;;;5.00;1.25;;;;;;;9.50;71.60;98573.94;5091839;28;20063;-59
2022/11/23 07:01:51;;;;;;;4.25;1.08;;;;;;;9.46;71.48;98573.03;5116199;27;20290;-59
2022/11/23 07:04:19;;;;;;;4.15;1.23;;;;;;;9.63;70.78;98572.72;5112586;28;20055;-59
2022/11/23 07:06:46;;;;;;;5.03;1.30;;;;;;;9.48;72.03;98585.41;5108824;28;20065;-59
2022/11/23 07:09:13;;;;;;;4.82;1.30;;;;;;;9.50;71.05;98585.06;5099902;27;20381;-59
2022/11/23 07:11:40;;;;;;;3.97;1.50;;;;;;;9.79;69.64;98575.53;5112531;28;20052;-59
2022/11/23 07:14:08;;;;;;;6.07;1.60;;;;;;;9.63;70.46;98578.28;5111074;28;20052;-58
2022/11/23 07:16:35;;;;;;;2.85;1.20;;;;;;;9.70;69.78;98578.50;5110329;28;20048;-59
2022/11/23 07:19:04;;;;;;;5.07;1.73;;;;;;;9.77;70.17;98579.84;5095839;28;20052;-58
2022/11/23 07:21:31;;;;;;;3.53;1.15;;;;;;;9.66;69.59;98588.69;5092077;28;20056;-58
2022/11/23 07:23:58;;;;;;;4.13;1.17;;;;;;;9.61;69.98;98591.72;5103296;28;20392;-58
2022/11/23 07:26:25;;;;;;;6.82;1.50;;;;;;;9.58;69.70;98591.63;5108896;28;20473;-58
2022/11/23 07:28:53;;;;;;;4.82;1.50;;;;;;;9.52;70.82;98591.88;5105674;28;20058;-57
2022/11/23 07:31:20;;;;;;;5.25;1.60;;;;;;;9.69;69.82;98587.97;5103898;28;20055;-55
2022/11/23 07:33:48;;;;;;;4.97;1.27;;;;;;;9.90;69.63;98589.72;5107000;27;20495;-56
2022/11/23 07:36:17;;;;;;;6.35;1.55;;;;;;;9.88;69.26;98592.84;5100375;27;20382;-55
2022/11/23 07:38:44;;;;;;;4.47;1.45;;;;;;;9.77;68.91;98591.78;5093140;28;20051;-57
2022/11/23 07:41:11;;;;;;;5.32;1.42;;;;;;;9.87;68.64;98593.22;5102011;28;20500;-56
2022/11/23 07:43:38;;;;;;;7.00;1.92;;;;;;;9.90;68.48;98598.06;5096447;28;20075;-56
2022/11/23 07:46:06;;;;;;;5.13;1.85;;;;;;;10.12;67.18;98593.88;5121176;27;20059;-56
2022/11/23 07:48:33;;;;;;;5.13;1.40;;;;;;;10.22;66.63;98598.09;5103791;28;20048;-58
2022/11/23 07:51:00;;;;;;;6.35;2.42;;;;;;;10.20;65.29;98601.25;5103598;28;20060;-57
2022/11/23 07:53:29;;;;;;;5.82;1.80;;;;;;;11.70;62.77;98601.13;5105273;28;20404;-56
2022/11/23 07:55:57;;;;;;;6.80;1.60;;;;;;;12.64;58.64;98597.22;5091303;28;20075;-56
2022/11/23 07:58:25;;;;;;;3.58;1.40;;;;;;;13.29;56.48;98593.44;5089402;28;20051;-56
2022/11/23 08:00:53;;;;;;;7.47;2.03;;;;;;;13.47;55.29;98605.66;5084285;28;20058;-55
2022/11/23 08:03:21;;;;;;;4.30;1.30;;;;;;;15.22;51.25;98608.53;5104121;28;20492;-55
2022/11/23 08:05:48;;;;;;;5.85;1.45;;;;;;;15.76;49.02;98601.22;5115445;28;20055;-57
2022/11/23 08:08:15;;;;;;;4.43;1.40;;;;;;;13.96;51.45;98613.06;5116905;28;20063;-56
2022/11/23 08:10:44;;;;;;;2.80;1.10;;;;;;;14.23;51.10;98614.94;5103764;28;20059;-55
2022/11/23 08:13:11;;;;;;;4.20;1.60;;;;;;;14.50;50.20;98607.97;5105710;28;20071;-57
2022/11/23 08:15:39;;;;;;;5.38;1.40;;;;;;;13.43;52.84;98606.81;5113754;28;20052;-56
2022/11/23 08:18:06;;;;;;;4.95;1.77;;;;;;;12.45;55.40;98609.28;5100677;28;20059;-57
2022/11/23 08:20:33;;;;;;;4.50;1.48;;;;;;;12.07;56.65;98622.16;5100030;28;20058;-57
2022/11/23 08:23:00;;;;;;;6.45;1.88;;;;;;;12.22;56.63;98626.03;5110510;28;20484;-56
2022/11/23 08:25:29;;;;;;;5.95;1.40;;;;;;;12.18;56.35;98623.19;5114773;28;20058;-57
2022/11/23 08:27:59;;;;;;;4.13;1.63;;;;;;;11.88;57.84;98631.34;5100654;28;20056;-57
2022/11/23 08:30:27;;;;;;;6.75;1.60;;;;;;;12.13;57.13;98621.50;5096908;28;20056;-56
2022/11/23 08:32:54;;;;;;;4.40;1.65;;;;;;;11.74;57.78;98617.94;5107237;27;20700;-57
2022/11/23 08:35:22;;;;;;;7.20;1.90;;;;;;;11.75;57.69;98616.75;5099619;28;20055;-57
2022/11/23 08:37:49;;;;;;;5.38;1.65;;;;;;;11.77;57.56;98614.41;5105607;28;20496;-57
2022/11/23 08:40:16;;;;;;;4.13;1.80;;;;;;;13.73;53.32;98613.19;5105877;28;20055;-57
2022/11/23 08:42:44;;;;;;;4.75;1.60;;;;;;;12.94;54.12;98614.09;5101033;28;20054;-58
2022/11/23 08:45:12;;;;;;;6.05;1.40;;;;;;;14.05;51.41;98609.97;5119240;27;20058;-58
2022/11/23 08:47:40;;;;;;;7.68;1.70;;;;;;;15.62;46.75;98609.56;5109613;28;20098;-57
2022/11/23 08:50:07;;;;;;;4.20;1.55;;;;;;;18.25;41.47;98614.66;5095642;28;20067;-57
2022/11/23 08:52:35;;;;;;;8.10;2.45;;;;;;;19.06;39.71;98613.66;5091839;28;20040;-57
2022/11/23 08:55:02;;;;;;;3.25;1.10;;;;;;;19.63;37.87;98609.44;5088540;28;20048;-56
2022/11/23 08:57:29;;;;;;;4.60;1.75;;;;;;;21.07;35.00;98606.16;5107273;28;20051;-57
2022/11/23 08:59:56;;;;;;;3.33;1.17;;;;;;;21.69;33.46;98611.50;5112119;28;20502;-58
2022/11/23 09:02:25;;;;;;;2.60;1.25;;;;;;;22.75;31.72;98603.13;5105493;28;20446;-57
2022/11/23 09:04:52;;;;;;;2.85;1.33;;;;;;;23.04;31.26;98615.38;5109399;28;20044;-57
2022/11/23 09:07:20;;;;;;;4.35;1.23;;;;;;;24.01;29.85;98611.94;5111534;28;20051;-57
2022/11/23 09:09:47;;;;;;;2.63;1.13;;;;;;;24.40;28.35;98618.47;5099321;28;20051;-57
2022/11/23 09:12:14;;;;;;;3.70;1.40;;;;;;;24.35;29.21;98611.31;5104501;28;20047;-57
2022/11/23 09:14:41;;;;;;;3.95;1.25;;;;;;;24.58;29.08;98601.66;5101404;28;21857;-57
2022/11/23 09:17:09;;;;;;;5.82;1.40;;;;;;;24.05;28.76;98621.19;5094048;28;20055;-58
2022/11/23 09:19:37;;;;;;;4.63;1.98;;;;;;;24.48;28.70;98619.84;5094239;28;20059;-58
2022/11/23 09:22:04;;;;;;;3.55;1.50;;;;;;;23.95;29.20;98610.91;5111301;28;20067;-58
2022/11/23 09:24:32;;;;;;;3.85;1.48;;;;;;;23.73;29.46;98608.66;5095248;28;20122;-57
2022/11/23 09:26:59;;;;;;;3.47;1.35;;;;;;;22.62;30.32;98611.53;5110904;27;20064;-57
2022/11/23 09:29:27;;;;;;;5.72;1.60;;;;;;;22.95;30.45;98606.66;5122968;27;20089;-58
2022/11/23 09:31:54;;;;;;;7.55;2.20;;;;;;;22.81;30.58;98612.69;5114796;27;20499;-58
2022/11/23 09:34:21;;;;;;;3.65;1.55;;;;;;;22.85;30.76;98621.94;5093137;28;20055;-58
2022/11/23 09:36:50;;;;;;;5.30;1.77;;;;;;;23.40;29.45;98622.16;5106004;28;20058;-57
2022/11/23 09:39:17;;;;;;;5.65;2.42;;;;;;;21.79;30.74;98626.69;5100681;28;20067;-57
2022/11/23 09:42:02;;;;;;;5.60;1.75;;;;;;;23.18;30.33;98616.25;5102408;28;20059;-58
2022/11/23 09:44:41;;;;;;;5.35;1.88;;;;;;;22.86;30.51;98615.00;5093275;28;20052;-57
2022/11/23 09:47:26;;;;;;;4.70;2.10;;;;;;;23.05;30.13;98616.16;5103645;28;20066;-58
2022/11/23 09:50:01;;;;;;;5.25;1.75;;;;;;;21.41;32.52;98613.63;5105429;28;20059;-58
2022/11/23 09:52:31;;;;;;;6.05;2.05;;;;;;;19.53;35.62;98610.34;5103652;28;20059;-58
2022/11/23 09:55:01;;;;;;;;;;;;;;;18.40;37.47;98617.41;5101102;28;20047;-58
2022/11/23 09:57:32;;;;;;;8.73;2.20;;;;;;;17.87;38.76;98627.75;5101924;28;19919;-58
2022/11/23 10:00:02;;;;;;;5.00;1.95;;;;;;;16.76;40.43;98625.09;5104539;28;20074;-57
2022/11/23 10:02:31;;;;;;;6.78;2.20;;;;;;;16.69;41.24;98637.13;5106868;28;20052;-57
2022/11/23 10:05:00;;;;;;;6.88;2.20;;;;;;;15.63;42.88;98630.81;5094508;28;20052;-57
2022/11/23 10:07:47;;;;;;;9.37;2.43;;;;;;;15.60;43.33;98642.81;5112985;28;20052;-57
2022/11/23 10:10:31;;;;;;;8.60;2.10;;;;;;;15.36;44.03;98627.47;5109356;28;20056;-57
2022/11/23 10:13:12;;;;;;;5.53;2.10;;;;;;;14.73;45.34;98637.84;5109857;28;20048;-58
2022/11/23 10:15:47;;;;;;;7.57;2.20;;;;;;;13.97;47.36;98644.66;5100048;27;20044;-57
2022/11/23 10:18:30;;;;;;;7.82;2.80;;;;;;;14.48;44.69;98643.19;5102512;28;20048;-57
2022/11/23 10:21:06;;;;;;;5.32;2.20;;;;;;;14.76;44.88;98653.88;5097046;28;20055;-57
2022/11/23 10:24:09;;;;;;;7.13;2.47;;;;;;;16.36;41.45;98649.56;5111632;28;20059;-57
2022/11/23 10:26:40;;;;;;;10.20;3.00;;;;;;;17.31;40.29;98638.75;5068218;28;20043;-57
2022/11/23 10:29:14;;;;;;;6.50;2.30;;;;;;;17.82;39.25;98645.84;5112830;28;20059;-57
2022/11/23 10:31:45;;;;;;;6.43;2.30;;;;;;;16.68;40.43;98646.00;5109195;28;20055;-57
2022/11/23 10:34:15;;;;;;;5.10;2.35;;;;;;;16.76;41.38;98634.34;5102432;27;20381;-57
2022/11/23 10:36:42;;;;;;;6.10;3.28;;;;;;;17.55;39.91;98636.25;5100691;28;20060;-58
2022/11/23 10:39:19;;;;;;;5.30;2.05;;;;;;;17.37;39.83;98639.94;5106430;28;20399;-57
2022/11/23 10:41:47;;;;;;;5.28;2.50;;;;;;;18.50;36.43;98649.53;5103891;28;20051;-57
2022/11/23 10:44:29;;;;;;;7.65;4.38;;;;;;;17.49;38.66;98655.59;5109581;28;20043;-57
2022/11/23 10:46:56;;;;;;;7.50;2.05;;;;;;;17.33;38.53;98644.78;5096797;28;20409;-57
2022/11/23 10:49:25;;;;;;;6.63;1.95;;;;;;;16.17;41.43;98657.13;5104480;28;20503;-57
2022/11/23 10:51:55;;;;;;;6.15;4.60;;;;;;;17.74;39.05;98638.59;5098958;28;20376;-57
2022/11/23 10:54:27;;;;;;;6.07;3.22;;;;;;;17.34;38.79;98646.34;5103761;27;20055;-57
2022/11/23 10:56:56;;;;;;;12.23;11.38;;;;;;;19.09;36.62;98635.41;5096850;28;20043;-56
2022/11/23 10:59:34;;;;;;;7.07;6.32;;;;;;;20.08;34.96;98629.09;5108996;28;20065;-57
2022/11/23 11:02:13;;;;;;;22.52;21.25;;;;;;;20.78;32.65;98633.34;5107682;28;20048;-57
2022/11/23 11:04:40;;;;;;;16.58;15.23;;;;;;;19.50;34.90;98622.50;5098613;28;20048;-57
2022/11/23 11:07:20;;;;;;;9.48;8.70;;;;;;;21.16;32.79;98618.97;5100712;28;20507;-57
2022/11/23 11:09:51;;;;;;;59.15;56.28;;;;;;;21.79;30.95;98610.47;5106031;28;20372;-57
2022/11/23 11:12:19;;;;;;;17.95;16.88;;;;;;;21.37;32.12;98601.56;5109739;28;20054;-57
2022/11/23 11:15:01;;;;;;;17.52;16.48;;;;;;;21.76;31.20;98594.38;5111438;28;20051;-57
2022/11/23 11:17:30;;;;;;;39.70;37.88;;;;;;;20.79;31.86;98595.31;5110111;28;20479;-57
2022/11/23 11:19:58;;;;;;;32.45;30.73;;;;;;;21.42;30.68;98583.31;5110234;28;20047;-57
2022/11/23 11:22:29;;;;;;;73.85;70.68;;;;;;;21.75;29.42;98581.41;5111210;28;20114;-56
2022/11/23 11:24:57;;;;;;;56.92;54.40;;;;;;;22.23;29.48;98571.47;5097177;28;20044;-57
2022/11/23 11:27:28;;;;;;;1999.90;999.90;;;;;;;21.39;30.03;98572.81;5091720;28;20052;-58
2022/11/23 11:29:59;;;;;;;1999.90;999.90;;;;;;;21.41;30.21;98578.84;5101463;28;20055;-57
2022/11/23 11:32:33;;;;;;;1999.90;999.90;;;;;;;21.25;30.07;98566.22;5112441;28;20472;-57
2022/11/23 11:35:09;;;;;;;1999.90;999.90;;;;;;;21.37;29.64;98561.91;5099572;28;20075;-57
2022/11/23 11:37:41;;;;;;;1999.90;999.90;;;;;;;21.91;29.16;98565.72;5107037;28;20048;-58
2022/11/23 11:40:17;;;;;;;1999.90;999.90;;;;;;;21.58;30.38;98572.03;5107387;28;20504;-57
2022/11/23 11:42:51;;;;;;;1999.90;999.90;;;;;;;22.03;29.22;98556.53;5100231;28;20044;-57
2022/11/23 11:45:23;;;;;;;1999.90;999.90;;;;;;;21.82;29.57;98555.78;5098254;28;20052;-57